sensor_id;sensor_type;location;lat;lon;timestamp;pressure;altitude;pressure_sealevel;temperature;humidity
2761;BME280;15420;48.636;9.798;2022-10-31T00:01:27;97167.34;;;14.29;83.26
2761;BME280;15420;48.636;9.798;2022-10-31T00:03:57;97173.38;;;14.27;83.09
2761;BME280;15420;48.636;9.798;2022-10-31T00:06:30;97177.69;;;14.26;82.75
2761;BME280;15420;48.636;9.798;2022-10-31T00:09:03;97175.03;;;14.22;82.90
2761;BME280;15420;48.636;9.798;2022-10-31T00:11:30;97177.59;;;14.19;83.37
2761;BME280;15420;48.636;9.798;2022-10-31T00:13:57;97174.13;;;14.18;83.44
2761;BME280;15420;48.636;9.798;2022-10-31T00:16:28;97179.28;;;14.17;82.67
2761;BME280;15420;48.636;9.798;2022-10-31T00:18:57;97178.38;;;14.13;82.93
2761;BME280;15420;48.636;9.798;2022-10-31T00:21:28;97186.97;;;14.11;83.02
2761;BME280;15420;48.636;9.798;2022-10-31T00:23:59;97180.84;;;14.05;83.77
2761;BME280;15420;48.636;9.798;2022-10-31T00:26:29;97176.53;;;14.04;83.51
2761;BME280;15420;48.636;9.798;2022-10-31T00:28:57;97179.06;;;14.01;84.32
2761;BME280;15420;48.636;9.798;2022-10-31T00:31:30;97179.91;;;13.99;83.92
2761;BME280;15420;48.636;9.798;2022-10-31T00:33:57;97186.78;;;13.97;83.81
2761;BME280;15420;48.636;9.798;2022-10-31T00:36:28;97173.78;;;13.94;84.67
2761;BME280;15420;48.636;9.798;2022-10-31T00:38:54;97183.28;;;13.93;84.62
2761;BME280;15420;48.636;9.798;2022-10-31T00:41:21;97177.19;;;13.91;84.44
2761;BME280;15420;48.636;9.798;2022-10-31T00:43:47;97183.22;;;13.89;84.53
2761;BME280;15420;48.636;9.798;2022-10-31T00:46:14;97184.06;;;13.88;83.91
2761;BME280;15420;48.636;9.798;2022-10-31T00:48:44;97192.69;;;13.87;83.36
2761;BME280;15420;48.636;9.798;2022-10-31T00:51:13;97188.31;;;13.83;84.53
2761;BME280;15420;48.636;9.798;2022-10-31T00:53:39;97185.72;;;13.84;84.55
2761;BME280;15420;48.636;9.798;2022-10-31T00:56:05;97176.19;;;13.80;84.53
2761;BME280;15420;48.636;9.798;2022-10-31T00:58:31;97179.59;;;13.78;84.41
2761;BME280;15420;48.636;9.798;2022-10-31T01:00:58;97176.09;;;13.75;84.01
2761;BME280;15420;48.636;9.798;2022-10-31T01:03:28;97175.19;;;13.72;85.54
2761;BME280;15420;48.636;9.798;2022-10-31T01:06:09;97176.88;;;13.68;84.23
2761;BME280;15420;48.636;9.798;2022-10-31T01:08:36;97172.50;;;13.64;84.73
2761;BME280;15420;48.636;9.798;2022-10-31T01:13:46;97165.47;;;13.57;85.20
2761;BME280;15420;48.636;9.798;2022-10-31T01:16:15;97166.28;;;13.55;85.07
2761;BME280;15420;48.636;9.798;2022-10-31T01:18:41;97160.22;;;13.53;85.13
2761;BME280;15420;48.636;9.798;2022-10-31T01:21:25;97162.81;;;13.51;85.55
2761;BME280;15420;48.636;9.798;2022-10-31T01:23:59;97161.88;;;13.46;85.48
2761;BME280;15420;48.636;9.798;2022-10-31T01:26:33;97162.72;;;13.45;86.01
2761;BME280;15420;48.636;9.798;2022-10-31T01:29:07;97157.56;;;13.45;85.64
2761;BME280;15420;48.636;9.798;2022-10-31T01:31:38;97162.69;;;13.42;85.85
2761;BME280;15420;48.636;9.798;2022-10-31T01:34:05;97161.78;;;13.40;86.00
2761;BME280;15420;48.636;9.798;2022-10-31T01:36:37;97161.72;;;13.37;85.09
2761;BME280;15420;48.636;9.798;2022-10-31T01:39:13;97167.75;;;13.36;86.05
2761;BME280;15420;48.636;9.798;2022-10-31T01:41:46;97173.72;;;13.32;85.25
2761;BME280;15420;48.636;9.798;2022-10-31T01:46:49;97154.66;;;13.27;85.67
2761;BME280;15420;48.636;9.798;2022-10-31T01:52:02;97151.09;;;13.20;86.96
2761;BME280;15420;48.636;9.798;2022-10-31T01:54:39;97155.34;;;13.17;86.62
2761;BME280;15420;48.636;9.798;2022-10-31T01:57:13;97155.28;;;13.14;86.50
2761;BME280;15420;48.636;9.798;2022-10-31T01:59:46;97144.91;;;13.14;86.82
2761;BME280;15420;48.636;9.798;2022-10-31T02:02:16;97142.28;;;13.10;86.74
2761;BME280;15420;48.636;9.798;2022-10-31T02:04:48;97141.38;;;13.08;85.58
2761;BME280;15420;48.636;9.798;2022-10-31T02:07:18;97142.22;;;13.06;85.94
2761;BME280;15420;48.636;9.798;2022-10-31T02:09:48;97137.00;;;13.04;86.74
2761;BME280;15420;48.636;9.798;2022-10-31T02:12:18;97130.09;;;13.03;86.30
2761;BME280;15420;48.636;9.798;2022-10-31T02:14:46;97134.41;;;13.03;86.99
2761;BME280;15420;48.636;9.798;2022-10-31T02:17:15;97138.69;;;13.02;86.09
2761;BME280;15420;48.636;9.798;2022-10-31T02:20:10;97135.19;;;12.99;86.92
2761;BME280;15420;48.636;9.798;2022-10-31T02:37:00;97129.84;;;12.90;87.25
2761;BME280;15420;48.636;9.798;2022-10-31T02:39:44;97128.97;;;12.89;87.84
2761;BME280;15420;48.636;9.798;2022-10-31T02:42:29;97122.13;;;12.91;87.14
2761;BME280;15420;48.636;9.798;2022-10-31T02:47:46;97121.25;;;12.91;87.27
2761;BME280;15420;48.636;9.798;2022-10-31T02:50:35;97129.00;;;12.91;86.65
2761;BME280;15420;48.636;9.798;2022-10-31T02:53:04;97118.63;;;12.89;86.94
2761;BME280;15420;48.636;9.798;2022-10-31T02:58:11;97119.47;;;12.88;87.38
2761;BME280;15420;48.636;9.798;2022-10-31T03:06:35;97115.03;;;12.81;86.99
2761;BME280;15420;48.636;9.798;2022-10-31T03:12:11;97126.22;;;12.80;88.08
2761;BME280;15420;48.636;9.798;2022-10-31T03:20:32;97125.31;;;12.76;88.99
2761;BME280;15420;48.636;9.798;2022-10-31T03:23:03;97123.56;;;12.75;89.03
2761;BME280;15420;48.636;9.798;2022-10-31T03:25:37;97121.84;;;12.76;88.79
2761;BME280;15420;48.636;9.798;2022-10-31T03:28:06;97117.47;;;12.72;89.09
2761;BME280;15420;48.636;9.798;2022-10-31T03:30:38;97120.06;;;12.72;88.09
2761;BME280;15420;48.636;9.798;2022-10-31T03:33:11;97116.59;;;12.71;89.36
2761;BME280;15420;48.636;9.798;2022-10-31T03:35:41;97123.47;;;12.69;88.49
2761;BME280;15420;48.636;9.798;2022-10-31T03:38:09;97113.09;;;12.68;88.90
2761;BME280;15420;48.636;9.798;2022-10-31T03:40:43;97121.72;;;12.68;88.82
2761;BME280;15420;48.636;9.798;2022-10-31T03:43:22;97120.00;;;12.69;88.04
2761;BME280;15420;48.636;9.798;2022-10-31T03:45:53;97112.19;;;12.66;88.27
2761;BME280;15420;48.636;9.798;2022-10-31T03:48:20;97121.66;;;12.65;89.37
2761;BME280;15420;48.636;9.798;2022-10-31T03:50:58;97117.31;;;12.64;88.99
2761;BME280;15420;48.636;9.798;2022-10-31T03:53:32;97120.72;;;12.62;88.99
2761;BME280;15420;48.636;9.798;2022-10-31T03:56:06;97115.56;;;12.62;89.19
2761;BME280;15420;48.636;9.798;2022-10-31T03:58:47;97119.00;;;12.61;88.63
2761;BME280;15420;48.636;9.798;2022-10-31T04:01:17;97118.91;;;12.56;89.36
2761;BME280;15420;48.636;9.798;2022-10-31T04:03:47;97118.88;;;12.55;89.61
2761;BME280;15420;48.636;9.798;2022-10-31T04:06:15;97116.28;;;12.55;90.43
2761;BME280;15420;48.636;9.798;2022-10-31T04:08:52;97113.72;;;12.55;89.04
2761;BME280;15420;48.636;9.798;2022-10-31T04:11:23;97120.53;;;12.51;89.86
2761;BME280;15420;48.636;9.798;2022-10-31T04:13:51;97110.19;;;12.51;90.42
2761;BME280;15420;48.636;9.798;2022-10-31T04:16:19;97110.22;;;12.53;89.41
2761;BME280;15420;48.636;9.798;2022-10-31T04:18:48;97111.06;;;12.52;90.39
2761;BME280;15420;48.636;9.798;2022-10-31T04:21:14;97104.19;;;12.52;90.87
2761;BME280;15420;48.636;9.798;2022-10-31T04:23:45;97105.84;;;12.49;90.30
2761;BME280;15420;48.636;9.798;2022-10-31T04:26:12;97103.25;;;12.47;90.68
2761;BME280;15420;48.636;9.798;2022-10-31T04:28:41;97104.06;;;12.44;90.81
2761;BME280;15420;48.636;9.798;2022-10-31T04:31:10;97097.16;;;12.43;90.96
2761;BME280;15420;48.636;9.798;2022-10-31T04:33:42;97089.41;;;12.43;91.14
2761;BME280;15420;48.636;9.798;2022-10-31T04:36:08;97098.00;;;12.42;90.05
2761;BME280;15420;48.636;9.798;2022-10-31T04:38:37;97090.22;;;12.41;90.06
2761;BME280;15420;48.636;9.798;2022-10-31T04:41:03;97090.19;;;12.39;89.97
2761;BME280;15420;48.636;9.798;2022-10-31T04:43:32;97094.47;;;12.37;91.05
2761;BME280;15420;48.636;9.798;2022-10-31T04:45:58;97098.72;;;12.35;90.97
2761;BME280;15420;48.636;9.798;2022-10-31T04:48:29;97096.16;;;12.35;91.02
2761;BME280;15420;48.636;9.798;2022-10-31T04:51:02;97099.50;;;12.31;92.15
2761;BME280;15420;48.636;9.798;2022-10-31T04:53:28;97092.59;;;12.30;92.68
2761;BME280;15420;48.636;9.798;2022-10-31T04:55:55;97099.50;;;12.31;92.99
2761;BME280;15420;48.636;9.798;2022-10-31T04:58:25;97087.50;;;12.33;92.23
2761;BME280;15420;48.636;9.798;2022-10-31T05:00:54;97097.81;;;12.33;92.53
2761;BME280;15420;48.636;9.798;2022-10-31T05:03:23;97097.78;;;12.32;92.81
2761;BME280;15420;48.636;9.798;2022-10-31T05:05:52;97089.16;;;12.30;92.63
2761;BME280;15420;48.636;9.798;2022-10-31T05:08:18;97091.69;;;12.28;91.99
2761;BME280;15420;48.636;9.798;2022-10-31T05:10:44;97089.97;;;12.27;91.90
2761;BME280;15420;48.636;9.798;2022-10-31T05:13:10;97089.13;;;12.28;92.72
2761;BME280;15420;48.636;9.798;2022-10-31T05:15:39;97079.63;;;12.27;91.74
2761;BME280;15420;48.636;9.798;2022-10-31T05:18:05;97082.16;;;12.24;93.32
2761;BME280;15420;48.636;9.798;2022-10-31T05:20:31;97078.66;;;12.22;92.54
2761;BME280;15420;48.636;9.798;2022-10-31T05:22:58;97072.59;;;12.20;93.65
2761;BME280;15420;48.636;9.798;2022-10-31T05:25:26;97074.31;;;12.20;92.72
2761;BME280;15420;48.636;9.798;2022-10-31T05:27:54;97069.97;;;12.19;93.83
2761;BME280;15420;48.636;9.798;2022-10-31T05:30:29;97070.84;;;12.19;93.73
2761;BME280;15420;48.636;9.798;2022-10-31T05:32:56;97070.88;;;12.21;93.60
2761;BME280;15420;48.636;9.798;2022-10-31T05:35:25;97070.84;;;12.19;94.47
2761;BME280;15420;48.636;9.798;2022-10-31T05:37:52;97060.53;;;12.19;93.23
2761;BME280;15420;48.636;9.798;2022-10-31T05:40:21;97053.63;;;12.18;93.73
2761;BME280;15420;48.636;9.798;2022-10-31T05:42:49;97051.03;;;12.18;93.73
2761;BME280;15420;48.636;9.798;2022-10-31T05:45:17;97051.00;;;12.17;93.38
2761;BME280;15420;48.636;9.798;2022-10-31T05:47:51;97056.94;;;12.13;93.17
2761;BME280;15420;48.636;9.798;2022-10-31T05:50:19;97056.88;;;12.09;93.92
2761;BME280;15420;48.636;9.798;2022-10-31T05:52:45;97054.28;;;12.08;94.27
2761;BME280;15420;48.636;9.798;2022-10-31T05:55:12;97043.09;;;12.09;93.84
2761;BME280;15420;48.636;9.798;2022-10-31T05:57:42;97053.44;;;12.09;94.74
2761;BME280;15420;48.636;9.798;2022-10-31T06:00:09;97058.59;;;12.09;95.90
2761;BME280;15420;48.636;9.798;2022-10-31T06:02:35;97045.75;;;12.12;94.87
2761;BME280;15420;48.636;9.798;2022-10-31T06:05:05;97049.19;;;12.13;95.68
2761;BME280;15420;48.636;9.798;2022-10-31T06:07:35;97057.84;;;12.15;96.24
2761;BME280;15420;48.636;9.798;2022-10-31T06:10:05;97064.72;;;12.14;95.98
2761;BME280;15420;48.636;9.798;2022-10-31T06:12:32;97063.00;;;12.13;96.16
2761;BME280;15420;48.636;9.798;2022-10-31T06:15:08;97058.69;;;12.14;96.45
2761;BME280;15420;48.636;9.798;2022-10-31T06:17:35;97056.09;;;12.14;96.44
2761;BME280;15420;48.636;9.798;2022-10-31T06:20:09;97056.13;;;12.15;94.85
2761;BME280;15420;48.636;9.798;2022-10-31T06:22:38;97060.41;;;12.13;96.07
2761;BME280;15420;48.636;9.798;2022-10-31T06:25:06;97058.63;;;12.10;95.34
2761;BME280;15420;48.636;9.798;2022-10-31T06:27:32;97045.69;;;12.09;94.96
2761;BME280;15420;48.636;9.798;2022-10-31T06:30:00;97056.88;;;12.09;96.32
2761;BME280;15420;48.636;9.798;2022-10-31T06:32:29;97048.28;;;12.09;95.41
2761;BME280;15420;48.636;9.798;2022-10-31T06:34:55;97047.41;;;12.08;95.50
2761;BME280;15420;48.636;9.798;2022-10-31T06:37:21;97044.84;;;12.10;96.42
2761;BME280;15420;48.636;9.798;2022-10-31T06:39:47;97056.88;;;12.09;96.89
2761;BME280;15420;48.636;9.798;2022-10-31T06:42:16;97045.72;;;12.10;96.98
2761;BME280;15420;48.636;9.798;2022-10-31T06:44:45;97046.63;;;12.13;96.98
2761;BME280;15420;48.636;9.798;2022-10-31T06:47:13;97055.28;;;12.16;97.04
2761;BME280;15420;48.636;9.798;2022-10-31T06:49:40;97051.03;;;12.18;97.38
2761;BME280;15420;48.636;9.798;2022-10-31T06:52:06;97057.97;;;12.21;97.11
2761;BME280;15420;48.636;9.798;2022-10-31T06:54:34;97058.91;;;12.24;97.77
2761;BME280;15420;48.636;9.798;2022-10-31T06:57:00;97064.97;;;12.26;96.91
2761;BME280;15420;48.636;9.798;2022-10-31T06:59:29;97057.28;;;12.29;96.87
2761;BME280;15420;48.636;9.798;2022-10-31T07:01:55;97062.50;;;12.32;96.71
2761;BME280;15420;48.636;9.798;2022-10-31T07:04:23;97062.56;;;12.37;97.18
2761;BME280;15420;48.636;9.798;2022-10-31T07:06:52;97065.22;;;12.40;96.73
2761;BME280;15420;48.636;9.798;2022-10-31T07:09:18;97059.25;;;12.44;96.69
2761;BME280;15420;48.636;9.798;2022-10-31T07:11:45;97071.38;;;12.48;97.29
2761;BME280;15420;48.636;9.798;2022-10-31T07:14:13;97061.13;;;12.53;97.97
2761;BME280;15420;48.636;9.798;2022-10-31T07:16:39;97060.31;;;12.57;96.72
2761;BME280;15420;48.636;9.798;2022-10-31T07:19:07;97066.44;;;12.62;97.05
2761;BME280;15420;48.636;9.798;2022-10-31T07:21:34;97064.75;;;12.64;97.15
2761;BME280;15420;48.636;9.798;2022-10-31T07:24:00;97059.72;;;12.71;97.27
2761;BME280;15420;48.636;9.798;2022-10-31T07:26:26;97058.94;;;12.77;97.15
2761;BME280;15420;48.636;9.798;2022-10-31T07:28:55;97059.91;;;12.82;97.35
2761;BME280;15420;48.636;9.798;2022-10-31T07:31:24;97059.13;;;12.88;96.41
2761;BME280;15420;48.636;9.798;2022-10-31T07:33:50;97062.66;;;12.93;96.53
2761;BME280;15420;48.636;9.798;2022-10-31T07:36:19;97059.31;;;12.98;97.08
2761;BME280;15420;48.636;9.798;2022-10-31T07:38:45;97068.91;;;13.05;96.06
2761;BME280;15420;48.636;9.798;2022-10-31T07:41:13;97063.81;;;13.10;96.88
2761;BME280;15420;48.636;9.798;2022-10-31T07:43:39;97061.34;;;13.16;96.89
2761;BME280;15420;48.636;9.798;2022-10-31T07:46:05;97056.25;;;13.22;95.84
2761;BME280;15420;48.636;9.798;2022-10-31T07:48:31;97063.25;;;13.28;96.18
2761;BME280;15420;48.636;9.798;2022-10-31T07:50:58;97064.22;;;13.36;95.46
2761;BME280;15420;48.636;9.798;2022-10-31T07:53:26;97067.75;;;13.41;95.92
2761;BME280;15420;48.636;9.798;2022-10-31T07:55:52;97058.34;;;13.48;95.11
2761;BME280;15420;48.636;9.798;2022-10-31T07:58:18;97065.31;;;13.53;94.64
2761;BME280;15420;48.636;9.798;2022-10-31T08:00:47;97052.44;;;13.59;94.81
2761;BME280;15420;48.636;9.798;2022-10-31T08:03:17;97058.56;;;13.64;94.88
2761;BME280;15420;48.636;9.798;2022-10-31T08:05:44;97055.19;;;13.70;94.64
2761;BME280;15420;48.636;9.798;2022-10-31T08:08:14;97050.06;;;13.76;94.27
2761;BME280;15420;48.636;9.798;2022-10-31T08:10:40;97054.47;;;13.83;94.58
2761;BME280;15420;48.636;9.798;2022-10-31T08:13:11;97045.94;;;13.90;94.56
2761;BME280;15420;48.636;9.798;2022-10-31T08:15:41;97048.63;;;13.98;94.47
2761;BME280;15420;48.636;9.798;2022-10-31T08:18:14;97046.09;;;14.04;94.67
2761;BME280;15420;48.636;9.798;2022-10-31T08:20:43;97034.97;;;14.11;93.89
2761;BME280;15420;48.636;9.798;2022-10-31T08:23:11;97040.25;;;14.20;94.01
2761;BME280;15420;48.636;9.798;2022-10-31T08:25:43;97033.41;;;14.27;94.48
2761;BME280;15420;48.636;9.798;2022-10-31T08:28:17;97030.03;;;14.35;94.56
2761;BME280;15420;48.636;9.798;2022-10-31T08:30:43;97026.69;;;14.44;94.28
2761;BME280;15420;48.636;9.798;2022-10-31T08:33:16;97022.47;;;14.52;94.15
2761;BME280;15420;48.636;9.798;2022-10-31T08:35:44;97022.50;;;14.61;94.02
2761;BME280;15420;48.636;9.798;2022-10-31T08:38:13;97014.81;;;14.70;93.68
2761;BME280;15420;48.636;9.798;2022-10-31T08:40:40;97016.59;;;14.79;93.94
2761;BME280;15420;48.636;9.798;2022-10-31T08:43:17;97015.84;;;14.91;94.18
2761;BME280;15420;48.636;9.798;2022-10-31T08:45:47;97013.31;;;15.00;93.90
2761;BME280;15420;48.636;9.798;2022-10-31T08:48:21;97016.84;;;15.10;93.83
2761;BME280;15420;48.636;9.798;2022-10-31T08:50:47;97010.00;;;15.21;94.54
2761;BME280;15420;48.636;9.798;2022-10-31T08:53:21;97010.06;;;15.30;94.16
2761;BME280;15420;48.636;9.798;2022-10-31T08:55:48;97004.06;;;15.40;93.91
2761;BME280;15420;48.636;9.798;2022-10-31T08:58:20;97004.09;;;15.49;94.33
2761;BME280;15420;48.636;9.798;2022-10-31T09:00:49;97009.41;;;15.60;93.75
2761;BME280;15420;48.636;9.798;2022-10-31T09:03:31;96996.41;;;15.69;94.27
2761;BME280;15420;48.636;9.798;2022-10-31T09:06:02;97000.78;;;15.79;93.99
2761;BME280;15420;48.636;9.798;2022-10-31T09:11:53;96994.81;;;16.00;94.77
2761;BME280;15420;48.636;9.798;2022-10-31T09:14:27;97004.38;;;16.12;95.50
2761;BME280;15420;48.636;9.798;2022-10-31T09:16:55;97000.94;;;16.23;94.86
2761;BME280;15420;48.636;9.798;2022-10-31T09:19:29;97000.09;;;16.35;95.30
2761;BME280;15420;48.636;9.798;2022-10-31T09:22:00;97007.91;;;16.47;94.96
2761;BME280;15420;48.636;9.798;2022-10-31T09:24:27;97005.31;;;16.59;95.89
2761;BME280;15420;48.636;9.798;2022-10-31T09:26:55;96997.53;;;16.70;96.74
2761;BME280;15420;48.636;9.798;2022-10-31T09:29:27;97006.22;;;16.81;95.83
2761;BME280;15420;48.636;9.798;2022-10-31T09:31:56;97000.13;;;16.93;95.97
2761;BME280;15420;48.636;9.798;2022-10-31T09:34:28;97003.59;;;17.06;96.39
2761;BME280;15420;48.636;9.798;2022-10-31T09:36:54;97000.13;;;17.17;96.50
2761;BME280;15420;48.636;9.798;2022-10-31T09:39:20;97005.31;;;17.29;97.43
2761;BME280;15420;48.636;9.798;2022-10-31T09:42:00;96996.59;;;17.43;96.63
2761;BME280;15420;48.636;9.798;2022-10-31T09:48:31;96994.81;;;17.66;96.35
2761;BME280;15420;48.636;9.798;2022-10-31T09:50:50;97001.69;;;17.78;97.23
2761;BME280;15420;48.636;9.798;2022-10-31T09:53:33;96992.97;;;17.88;97.20
2761;BME280;15420;48.636;9.798;2022-10-31T09:56:06;96995.53;;;17.97;96.53
2761;BME280;15420;48.636;9.798;2022-10-31T09:58:41;96995.50;;;18.06;96.01
2761;BME280;15420;48.636;9.798;2022-10-31T10:06:49;96982.34;;;18.23;93.78
2761;BME280;15420;48.636;9.798;2022-10-31T10:09:17;96982.31;;;18.29;93.11
2761;BME280;15420;48.636;9.798;2022-10-31T10:20:10;96977.88;;;18.45;89.02
2761;BME280;15420;48.636;9.798;2022-10-31T10:22:47;96978.72;;;18.48;88.77
2761;BME280;15420;48.636;9.798;2022-10-31T10:25:43;96976.06;;;18.56;88.45
2761;BME280;15420;48.636;9.798;2022-10-31T10:28:22;96973.44;;;18.57;88.25
2761;BME280;15420;48.636;9.798;2022-10-31T10:31:06;96975.16;;;18.65;87.77
2761;BME280;15420;48.636;9.798;2022-10-31T10:33:38;96976.84;;;18.69;87.95
2761;BME280;15420;48.636;9.798;2022-10-31T10:36:18;96974.19;;;18.73;87.78
2761;BME280;15420;48.636;9.798;2022-10-31T10:38:50;96976.75;;;18.76;87.57
2761;BME280;15420;48.636;9.798;2022-10-31T10:41:32;96975.84;;;18.83;87.54
2761;BME280;15420;48.636;9.798;2022-10-31T10:43:59;96977.56;;;18.86;87.13
2761;BME280;15420;48.636;9.798;2022-10-31T10:49:52;96967.88;;;18.99;86.36
2761;BME280;15420;48.636;9.798;2022-10-31T10:52:46;96968.72;;;19.01;85.46
2761;BME280;15420;48.636;9.798;2022-10-31T10:55:35;96968.66;;;19.07;84.63
2761;BME280;15420;48.636;9.798;2022-10-31T10:58:11;96973.88;;;19.10;85.02
2761;BME280;15420;48.636;9.798;2022-10-31T11:00:46;96967.66;;;19.20;84.27
2761;BME280;15420;48.636;9.798;2022-10-31T11:03:16;96965.88;;;19.23;84.12
2761;BME280;15420;48.636;9.798;2022-10-31T11:05:53;96960.63;;;19.26;84.06
2761;BME280;15420;48.636;9.798;2022-10-31T11:08:30;96955.41;;;19.26;83.54
2761;BME280;15420;48.636;9.798;2022-10-31T11:13:49;96948.38;;;19.32;82.97
2761;BME280;15420;48.636;9.798;2022-10-31T11:16:36;96943.09;;;19.36;82.53
2761;BME280;15420;48.636;9.798;2022-10-31T11:19:26;96937.84;;;19.41;82.76
2761;BME280;15420;48.636;9.798;2022-10-31T11:21:53;96945.63;;;19.45;82.63
2761;BME280;15420;48.636;9.798;2022-10-31T11:24:22;96933.38;;;19.50;82.90
2761;BME280;15420;48.636;9.798;2022-10-31T11:27:14;96933.34;;;19.55;82.88
2761;BME280;15420;48.636;9.798;2022-10-31T11:29:40;96924.63;;;19.56;82.22
2761;BME280;15420;48.636;9.798;2022-10-31T11:32:26;96929.75;;;19.64;81.83
2761;BME280;15420;48.636;9.798;2022-10-31T11:35:00;96919.25;;;19.68;81.19
2761;BME280;15420;48.636;9.798;2022-10-31T11:37:34;96914.78;;;19.75;81.10
2761;BME280;15420;48.636;9.798;2022-10-31T11:40:19;96913.72;;;19.86;80.34
2761;BME280;15420;48.636;9.798;2022-10-31T11:42:46;96909.28;;;19.93;79.66
2761;BME280;15420;48.636;9.798;2022-10-31T11:45:33;96919.53;;;20.08;79.61
2761;BME280;15420;48.636;9.798;2022-10-31T11:48:01;96908.09;;;20.15;79.82
2761;BME280;15420;48.636;9.798;2022-10-31T11:50:35;96906.22;;;20.25;79.75
2761;BME280;15420;48.636;9.798;2022-10-31T11:53:09;96904.31;;;20.35;79.57
2761;BME280;15420;48.636;9.798;2022-10-31T11:55:45;96904.19;;;20.45;79.04
2761;BME280;15420;48.636;9.798;2022-10-31T11:58:26;96898.75;;;20.58;77.65
2761;BME280;15420;48.636;9.798;2022-10-31T12:00:58;96890.72;;;20.68;78.57
2761;BME280;15420;48.636;9.798;2022-10-31T12:08:50;96875.09;;;21.08;76.63
2761;BME280;15420;48.636;9.798;2022-10-31T12:11:40;96872.22;;;21.24;76.76
2761;BME280;15420;48.636;9.798;2022-10-31T12:16:59;96865.38;;;21.60;75.96
2761;BME280;15420;48.636;9.798;2022-10-31T12:22:51;96851.25;;;22.05;73.66
2761;BME280;15420;48.636;9.798;2022-10-31T12:56:21;96819.22;;;23.57;65.40
2761;BME280;15420;48.636;9.798;2022-10-31T12:59:03;96814.19;;;23.47;64.69
2761;BME280;15420;48.636;9.798;2022-10-31T13:01:36;96810.94;;;23.39;65.07
2761;BME280;15420;48.636;9.798;2022-10-31T13:07:03;96801.66;;;23.26;65.44
2761;BME280;15420;48.636;9.798;2022-10-31T13:09:44;96803.66;;;23.18;66.07
2761;BME280;15420;48.636;9.798;2022-10-31T13:12:15;96798.63;;;23.10;66.31
2761;BME280;15420;48.636;9.798;2022-10-31T13:17:52;96789.47;;;22.93;67.13
2761;BME280;15420;48.636;9.798;2022-10-31T13:20:41;96794.81;;;22.90;67.48
2761;BME280;15420;48.636;9.798;2022-10-31T13:23:33;96789.81;;;22.82;67.92
2761;BME280;15420;48.636;9.798;2022-10-31T13:26:21;96783.00;;;22.73;68.23
2761;BME280;15420;48.636;9.798;2022-10-31T13:29:19;96783.13;;;22.69;67.71
2761;BME280;15420;48.636;9.798;2022-10-31T13:31:50;96767.66;;;22.58;68.82
2761;BME280;15420;48.636;9.798;2022-10-31T13:34:42;96764.25;;;22.55;68.46
2761;BME280;15420;48.636;9.798;2022-10-31T13:45:19;96759.38;;;22.39;70.27
2761;BME280;15420;48.636;9.798;2022-10-31T13:50:29;96758.53;;;22.39;70.80
2761;BME280;15420;48.636;9.798;2022-10-31T13:53:21;96759.31;;;22.42;70.90
2761;BME280;15420;48.636;9.798;2022-10-31T13:56:17;96750.56;;;22.42;70.84
2761;BME280;15420;48.636;9.798;2022-10-31T14:01:59;96741.91;;;22.38;71.04
2761;BME280;15420;48.636;9.798;2022-10-31T14:04:50;96725.25;;;22.39;71.25
2761;BME280;15420;48.636;9.798;2022-10-31T14:07:22;96718.31;;;22.37;71.54
2761;BME280;15420;48.636;9.798;2022-10-31T14:10:22;96716.50;;;22.39;71.22
2761;BME280;15420;48.636;9.798;2022-10-31T14:12:54;96724.50;;;22.34;71.72
2761;BME280;15420;48.636;9.798;2022-10-31T14:15:42;96736.69;;;22.37;72.03
2761;BME280;15420;48.636;9.798;2022-10-31T14:18:33;96733.13;;;22.39;71.93
2761;BME280;15420;48.636;9.798;2022-10-31T14:21:00;96737.47;;;22.40;72.25
2761;BME280;15420;48.636;9.798;2022-10-31T14:29:20;96737.28;;;22.48;70.85
2761;BME280;15420;48.636;9.798;2022-10-31T14:31:54;96733.75;;;22.49;71.21
2761;BME280;15420;48.636;9.798;2022-10-31T14:34:36;96738.09;;;22.50;71.00
2761;BME280;15420;48.636;9.798;2022-10-31T14:40:32;96735.66;;;22.42;71.24
2761;BME280;15420;48.636;9.798;2022-10-31T14:51:18;96722.41;;;22.14;71.98
2761;BME280;15420;48.636;9.798;2022-10-31T14:53:53;96727.81;;;22.08;72.31
2761;BME280;15420;48.636;9.798;2022-10-31T14:56:33;96725.34;;;22.02;72.36
2761;BME280;15420;48.636;9.798;2022-10-31T14:59:12;96715.91;;;21.94;72.29
2761;BME280;15420;48.636;9.798;2022-10-31T15:01:48;96718.75;;;21.84;72.77
2761;BME280;15420;48.636;9.798;2022-10-31T15:04:28;96709.34;;;21.77;72.34
2761;BME280;15420;48.636;9.798;2022-10-31T15:09:38;96700.03;;;21.64;72.75
2761;BME280;15420;48.636;9.798;2022-10-31T15:14:51;96710.09;;;21.45;73.85
2761;BME280;15420;48.636;9.798;2022-10-31T15:17:20;96716.38;;;21.38;74.03
2761;BME280;15420;48.636;9.798;2022-10-31T15:19:49;96703.44;;;21.31;74.97
2761;BME280;15420;48.636;9.798;2022-10-31T15:22:19;96709.72;;;21.24;74.87
2761;BME280;15420;48.636;9.798;2022-10-31T15:24:48;96707.22;;;21.16;75.02
2761;BME280;15420;48.636;9.798;2022-10-31T15:27:24;96703.00;;;21.09;75.57
2761;BME280;15420;48.636;9.798;2022-10-31T15:29:57;96694.47;;;21.01;76.18
2761;BME280;15420;48.636;9.798;2022-10-31T15:32:29;96705.09;;;20.93;75.53
2761;BME280;15420;48.636;9.798;2022-10-31T15:35:10;96693.88;;;20.86;75.88
2761;BME280;15420;48.636;9.798;2022-10-31T15:37:38;96699.38;;;20.76;76.76
2761;BME280;15420;48.636;9.798;2022-10-31T15:40:21;96692.50;;;20.70;76.49
2761;BME280;15420;48.636;9.798;2022-10-31T15:42:54;96575.44;;;19.89;77.39
2761;BME280;15420;48.636;9.798;2022-10-31T15:45:26;96702.44;;;20.54;78.19
2761;BME280;15420;48.636;9.798;2022-10-31T15:48:01;96707.84;;;20.45;78.54
2761;BME280;15420;48.636;9.798;2022-10-31T15:50:34;96707.09;;;20.37;78.76
2761;BME280;15420;48.636;9.798;2022-10-31T15:53:13;96713.34;;;20.29;79.30
2761;BME280;15420;48.636;9.798;2022-10-31T15:55:58;96709.09;;;20.23;78.39
2761;BME280;15420;48.636;9.798;2022-10-31T15:58:28;96710.16;;;20.13;79.41
2761;BME280;15420;48.636;9.798;2022-10-31T16:01:04;96702.47;;;20.04;79.50
2761;BME280;15420;48.636;9.798;2022-10-31T16:03:41;96713.09;;;19.95;79.87
2761;BME280;15420;48.636;9.798;2022-10-31T16:06:20;96715.00;;;19.85;80.94
2761;BME280;15420;48.636;9.798;2022-10-31T16:08:50;96714.31;;;19.75;80.64
2761;BME280;15420;48.636;9.798;2022-10-31T16:14:24;96704.97;;;19.61;81.45